sensor_id;sensor_type;location;lat;lon;timestamp;pressure;altitude;pressure_sealevel;temperature;humidity
56456;BME280;42354;53.218;6.564;2023-06-10T00:00:45;46958.56;;;-142.92;61.45
56456;BME280;42354;53.218;6.564;2023-06-10T00:03:11;46946.25;;;-142.92;61.92
56456;BME280;42354;53.218;6.564;2023-06-10T00:05:37;46948.28;;;-142.92;62.19
56456;BME280;42354;53.218;6.564;2023-06-10T00:08:04;46958.56;;;-142.92;62.48
56456;BME280;42354;53.218;6.564;2023-06-10T00:10:36;46950.34;;;-142.92;62.64
56456;BME280;42354;53.218;6.564;2023-06-10T00:13:06;46960.59;;;-142.92;62.91
56456;BME280;42354;53.218;6.564;2023-06-10T00:15:36;46962.66;;;-142.92;63.12
56456;BME280;42354;53.218;6.564;2023-06-10T00:18:02;46956.50;;;-142.92;63.49
56456;BME280;42354;53.218;6.564;2023-06-10T00:20:28;46962.66;;;-142.92;63.78
56456;BME280;42354;53.218;6.564;2023-06-10T00:22:55;46946.25;;;-142.92;64.06
56456;BME280;42354;53.218;6.564;2023-06-10T00:25:22;46974.97;;;-142.92;64.39
56456;BME280;42354;53.218;6.564;2023-06-10T00:27:47;46954.44;;;-142.92;64.36
56456;BME280;42354;53.218;6.564;2023-06-10T00:30:13;46950.34;;;-142.92;64.28
56456;BME280;42354;53.218;6.564;2023-06-10T00:32:39;46966.75;;;-142.92;64.23
56456;BME280;42354;53.218;6.564;2023-06-10T00:35:05;46950.34;;;-142.92;64.45
56456;BME280;42354;53.218;6.564;2023-06-10T00:37:31;46962.66;;;-142.92;64.55
56456;BME280;42354;53.218;6.564;2023-06-10T00:39:57;46960.59;;;-142.92;64.62
56456;BME280;42354;53.218;6.564;2023-06-10T00:42:22;46966.75;;;-142.92;64.67
56456;BME280;42354;53.218;6.564;2023-06-10T00:44:50;46933.94;;;-142.92;64.89
56456;BME280;42354;53.218;6.564;2023-06-10T00:47:16;46966.75;;;-142.92;65.50
56456;BME280;42354;53.218;6.564;2023-06-10T00:49:41;46956.50;;;-142.92;66.16
56456;BME280;42354;53.218;6.564;2023-06-10T00:52:08;46968.81;;;-142.92;66.20
56456;BME280;42354;53.218;6.564;2023-06-10T00:54:33;46948.28;;;-142.92;66.58
56456;BME280;42354;53.218;6.564;2023-06-10T00:57:00;46954.44;;;-142.92;66.70
56456;BME280;42354;53.218;6.564;2023-06-10T00:59:28;46962.66;;;-142.92;67.13
56456;BME280;42354;53.218;6.564;2023-06-10T01:01:53;46933.94;;;-142.92;67.21
56456;BME280;42354;53.218;6.564;2023-06-10T01:04:20;46958.56;;;-142.92;67.72
56456;BME280;42354;53.218;6.564;2023-06-10T01:09:41;46974.97;;;-142.92;68.40
56456;BME280;42354;53.218;6.564;2023-06-10T01:12:34;46960.59;;;-142.92;68.66
56456;BME280;42354;53.218;6.564;2023-06-10T01:15:02;46956.50;;;-142.92;68.94
56456;BME280;42354;53.218;6.564;2023-06-10T01:17:29;46956.50;;;-142.92;69.08
56456;BME280;42354;53.218;6.564;2023-06-10T01:19:57;46954.44;;;-142.92;69.31
56456;BME280;42354;53.218;6.564;2023-06-10T01:22:24;46966.75;;;-142.92;69.49
56456;BME280;42354;53.218;6.564;2023-06-10T01:24:51;46942.13;;;-142.92;69.78
56456;BME280;42354;53.218;6.564;2023-06-10T01:27:19;46958.56;;;-142.92;69.59
56456;BME280;42354;53.218;6.564;2023-06-10T01:29:52;46981.13;;;-142.92;69.88
56456;BME280;42354;53.218;6.564;2023-06-10T01:32:32;46968.81;;;-142.92;70.00
56456;BME280;42354;53.218;6.564;2023-06-10T01:34:59;46966.75;;;-142.92;70.30
56456;BME280;42354;53.218;6.564;2023-06-10T01:37:26;46966.75;;;-142.92;70.40
56456;BME280;42354;53.218;6.564;2023-06-10T01:39:52;46974.97;;;-142.92;70.68
56456;BME280;42354;53.218;6.564;2023-06-10T01:42:17;46962.66;;;-142.92;71.05
56456;BME280;42354;53.218;6.564;2023-06-10T01:44:43;46962.66;;;-142.92;71.17
56456;BME280;42354;53.218;6.564;2023-06-10T01:47:08;46991.38;;;-142.92;71.43
56456;BME280;42354;53.218;6.564;2023-06-10T01:49:34;46968.81;;;-142.92;71.49
56456;BME280;42354;53.218;6.564;2023-06-10T01:52:00;46966.75;;;-142.92;71.86
56456;BME280;42354;53.218;6.564;2023-06-10T01:54:25;46958.56;;;-142.92;72.18
56456;BME280;42354;53.218;6.564;2023-06-10T01:56:51;46958.56;;;-142.92;72.26
56456;BME280;42354;53.218;6.564;2023-06-10T01:59:16;46970.88;;;-142.92;72.23
56456;BME280;42354;53.218;6.564;2023-06-10T02:01:42;46962.66;;;-142.92;72.46
56456;BME280;42354;53.218;6.564;2023-06-10T02:04:07;46977.03;;;-142.92;72.49
56456;BME280;42354;53.218;6.564;2023-06-10T02:06:32;46964.72;;;-142.92;72.76
56456;BME280;42354;53.218;6.564;2023-06-10T02:08:59;46956.50;;;-142.92;72.75
56456;BME280;42354;53.218;6.564;2023-06-10T02:11:24;46966.75;;;-142.92;72.90
56456;BME280;42354;53.218;6.564;2023-06-10T02:13:52;46970.88;;;-142.92;73.26
56456;BME280;42354;53.218;6.564;2023-06-10T02:16:17;46974.97;;;-142.92;73.68
56456;BME280;42354;53.218;6.564;2023-06-10T02:18:44;46966.75;;;-142.92;74.08
56456;BME280;42354;53.218;6.564;2023-06-10T02:21:09;46962.66;;;-142.92;74.52
56456;BME280;42354;53.218;6.564;2023-06-10T02:23:35;46958.56;;;-142.92;74.83
56456;BME280;42354;53.218;6.564;2023-06-10T02:26:01;46954.44;;;-142.92;75.31
56456;BME280;42354;53.218;6.564;2023-06-10T02:28:27;46956.50;;;-142.92;76.07
56456;BME280;42354;53.218;6.564;2023-06-10T02:30:52;46979.06;;;-142.92;76.52
56456;BME280;42354;53.218;6.564;2023-06-10T02:33:18;46962.66;;;-142.92;77.16
56456;BME280;42354;53.218;6.564;2023-06-10T02:35:45;46983.19;;;-142.92;77.90
56456;BME280;42354;53.218;6.564;2023-06-10T02:38:10;46958.56;;;-142.92;78.25
56456;BME280;42354;53.218;6.564;2023-06-10T02:40:35;46966.75;;;-142.92;78.70
56456;BME280;42354;53.218;6.564;2023-06-10T02:43:01;46972.91;;;-142.92;79.54
56456;BME280;42354;53.218;6.564;2023-06-10T02:45:26;46958.56;;;-142.92;79.88
56456;BME280;42354;53.218;6.564;2023-06-10T02:47:52;46954.44;;;-142.92;80.34
56456;BME280;42354;53.218;6.564;2023-06-10T02:50:17;46972.91;;;-142.92;81.45
56456;BME280;42354;53.218;6.564;2023-06-10T02:52:43;46946.25;;;-142.92;82.30
56456;BME280;42354;53.218;6.564;2023-06-10T02:55:08;46974.97;;;-142.92;83.26
56456;BME280;42354;53.218;6.564;2023-06-10T02:57:34;46960.59;;;-142.92;83.97
56456;BME280;42354;53.218;6.564;2023-06-10T02:59:59;46964.72;;;-142.92;84.63
56456;BME280;42354;53.218;6.564;2023-06-10T03:02:24;46956.50;;;-142.92;85.26
56456;BME280;42354;53.218;6.564;2023-06-10T03:04:55;46954.44;;;-142.92;85.87
56456;BME280;42354;53.218;6.564;2023-06-10T03:07:20;46964.72;;;-142.92;86.26
56456;BME280;42354;53.218;6.564;2023-06-10T03:09:46;46960.59;;;-142.92;86.65
56456;BME280;42354;53.218;6.564;2023-06-10T03:12:12;46960.59;;;-142.92;88.21
56456;BME280;42354;53.218;6.564;2023-06-10T03:14:37;46958.56;;;-142.92;88.66
56456;BME280;42354;53.218;6.564;2023-06-10T03:17:04;46983.19;;;-142.92;89.23
56456;BME280;42354;53.218;6.564;2023-06-10T03:19:31;46966.75;;;-142.92;90.16
56456;BME280;42354;53.218;6.564;2023-06-10T03:22:07;46966.75;;;-142.92;90.53
56456;BME280;42354;53.218;6.564;2023-06-10T03:24:33;46954.44;;;-142.92;91.54
56456;BME280;42354;53.218;6.564;2023-06-10T03:26:58;46958.56;;;-142.92;92.03
56456;BME280;42354;53.218;6.564;2023-06-10T03:29:24;46985.22;;;-142.92;92.26
56456;BME280;42354;53.218;6.564;2023-06-10T03:31:49;46974.97;;;-142.92;93.22
56456;BME280;42354;53.218;6.564;2023-06-10T03:34:14;46954.44;;;-142.92;93.72
56456;BME280;42354;53.218;6.564;2023-06-10T03:36:40;46966.75;;;-142.92;94.41
56456;BME280;42354;53.218;6.564;2023-06-10T03:39:08;46970.88;;;-142.92;94.83
56456;BME280;42354;53.218;6.564;2023-06-10T03:41:33;46954.44;;;-142.92;95.48
56456;BME280;42354;53.218;6.564;2023-06-10T03:43:58;46964.72;;;-142.92;96.16
56456;BME280;42354;53.218;6.564;2023-06-10T03:46:23;46970.88;;;-142.92;96.67
56456;BME280;42354;53.218;6.564;2023-06-10T03:48:49;46970.88;;;-142.92;97.47
56456;BME280;42354;53.218;6.564;2023-06-10T03:51:14;46956.50;;;-142.92;97.78
56456;BME280;42354;53.218;6.564;2023-06-10T03:53:40;46974.97;;;-142.92;98.90
56456;BME280;42354;53.218;6.564;2023-06-10T03:56:05;46964.72;;;-142.92;98.92
56456;BME280;42354;53.218;6.564;2023-06-10T03:58:31;46968.81;;;-142.92;99.10
56456;BME280;42354;53.218;6.564;2023-06-10T04:00:56;46981.13;;;-142.92;99.75
56456;BME280;42354;53.218;6.564;2023-06-10T04:03:21;46966.75;;;-142.92;100.00
56456;BME280;42354;53.218;6.564;2023-06-10T04:05:48;46958.56;;;-142.92;100.00
56456;BME280;42354;53.218;6.564;2023-06-10T04:08:13;46970.88;;;-142.92;100.00
56456;BME280;42354;53.218;6.564;2023-06-10T04:10:38;46970.88;;;-142.92;100.00
56456;BME280;42354;53.218;6.564;2023-06-10T04:13:04;46960.59;;;-142.92;100.00
56456;BME280;42354;53.218;6.564;2023-06-10T04:15:30;46974.97;;;-142.92;100.00
56456;BME280;42354;53.218;6.564;2023-06-10T04:17:57;46968.81;;;-142.92;100.00
56456;BME280;42354;53.218;6.564;2023-06-10T04:20:23;46968.81;;;-142.92;100.00
56456;BME280;42354;53.218;6.564;2023-06-10T04:22:48;46966.75;;;-142.92;100.00
56456;BME280;42354;53.218;6.564;2023-06-10T04:25:14;46968.81;;;-142.92;100.00
56456;BME280;42354;53.218;6.564;2023-06-10T04:27:39;46964.72;;;-142.92;100.00
56456;BME280;42354;53.218;6.564;2023-06-10T04:30:05;46977.03;;;-142.92;100.00
56456;BME280;42354;53.218;6.564;2023-06-10T04:32:30;46958.56;;;-142.92;100.00
56456;BME280;42354;53.218;6.564;2023-06-10T04:34:56;46981.13;;;-142.92;100.00
56456;BME280;42354;53.218;6.564;2023-06-10T04:37:21;46983.19;;;-142.92;100.00
56456;BME280;42354;53.218;6.564;2023-06-10T04:39:49;46974.97;;;-142.92;100.00
56456;BME280;42354;53.218;6.564;2023-06-10T04:42:15;46960.59;;;-142.92;100.00
56456;BME280;42354;53.218;6.564;2023-06-10T04:44:40;46977.03;;;-142.92;100.00
56456;BME280;42354;53.218;6.564;2023-06-10T04:47:05;46991.38;;;-142.92;100.00
56456;BME280;42354;53.218;6.564;2023-06-10T04:49:33;46962.66;;;-142.92;100.00
56456;BME280;42354;53.218;6.564;2023-06-10T04:51:58;46962.66;;;-142.92;100.00
56456;BME280;42354;53.218;6.564;2023-06-10T04:54:25;46974.97;;;-142.92;100.00
56456;BME280;42354;53.218;6.564;2023-06-10T04:56:50;46958.56;;;-142.92;100.00
56456;BME280;42354;53.218;6.564;2023-06-10T04:59:15;46970.88;;;-142.92;100.00
56456;BME280;42354;53.218;6.564;2023-06-10T05:01:41;46962.66;;;-142.92;99.85
56456;BME280;42354;53.218;6.564;2023-06-10T05:04:06;46974.97;;;-142.92;99.50
56456;BME280;42354;53.218;6.564;2023-06-10T05:06:32;46979.06;;;-142.92;98.98
56456;BME280;42354;53.218;6.564;2023-06-10T05:08:57;46983.19;;;-142.92;98.71
56456;BME280;42354;53.218;6.564;2023-06-10T05:11:22;46972.91;;;-142.92;98.48
56456;BME280;42354;53.218;6.564;2023-06-10T05:13:47;46964.72;;;-142.92;97.98
56456;BME280;42354;53.218;6.564;2023-06-10T05:16:14;46970.88;;;-142.92;97.56
56456;BME280;42354;53.218;6.564;2023-06-10T05:18:40;46979.06;;;-142.92;96.99
56456;BME280;42354;53.218;6.564;2023-06-10T05:21:05;46966.75;;;-142.92;96.88
56456;BME280;42354;53.218;6.564;2023-06-10T05:23:31;46968.81;;;-142.92;96.36
56456;BME280;42354;53.218;6.564;2023-06-10T05:25:56;46972.91;;;-142.92;95.87
56456;BME280;42354;53.218;6.564;2023-06-10T05:28:23;46974.97;;;-142.92;95.22
56456;BME280;42354;53.218;6.564;2023-06-10T05:30:48;46966.75;;;-142.92;94.58
56456;BME280;42354;53.218;6.564;2023-06-10T05:33:13;46974.97;;;-142.92;93.48
56456;BME280;42354;53.218;6.564;2023-06-10T05:35:39;46985.22;;;-142.92;92.46
56456;BME280;42354;53.218;6.564;2023-06-10T05:38:04;46977.03;;;-142.92;91.59
56456;BME280;42354;53.218;6.564;2023-06-10T05:40:30;46983.19;;;-142.92;90.73
56456;BME280;42354;53.218;6.564;2023-06-10T05:42:55;46964.72;;;-142.92;90.03
56456;BME280;42354;53.218;6.564;2023-06-10T05:45:21;46970.88;;;-142.92;89.09
56456;BME280;42354;53.218;6.564;2023-06-10T05:47:46;46970.88;;;-142.92;88.39
56456;BME280;42354;53.218;6.564;2023-06-10T05:50:11;46966.75;;;-142.92;87.63
56456;BME280;42354;53.218;6.564;2023-06-10T05:52:37;46979.06;;;-142.92;87.14
56456;BME280;42354;53.218;6.564;2023-06-10T05:55:03;46962.66;;;-142.92;86.47
56456;BME280;42354;53.218;6.564;2023-06-10T05:57:29;46962.66;;;-142.92;85.93
56456;BME280;42354;53.218;6.564;2023-06-10T05:59:54;46958.56;;;-142.92;85.42
56456;BME280;42354;53.218;6.564;2023-06-10T06:02:20;46991.38;;;-142.92;85.17
56456;BME280;42354;53.218;6.564;2023-06-10T06:04:45;46979.06;;;-142.92;84.51
56456;BME280;42354;53.218;6.564;2023-06-10T06:07:10;46962.66;;;-142.92;83.88
56456;BME280;42354;53.218;6.564;2023-06-10T06:09:36;46991.38;;;-142.92;83.08
56456;BME280;42354;53.218;6.564;2023-06-10T06:12:01;46968.81;;;-142.92;82.76
56456;BME280;42354;53.218;6.564;2023-06-10T06:14:30;46960.59;;;-142.92;81.34
56456;BME280;42354;53.218;6.564;2023-06-10T06:16:56;46972.91;;;-142.92;81.07
56456;BME280;42354;53.218;6.564;2023-06-10T06:19:21;46979.06;;;-142.92;80.26
56456;BME280;42354;53.218;6.564;2023-06-10T06:21:47;46960.59;;;-142.92;79.28
56456;BME280;42354;53.218;6.564;2023-06-10T06:24:12;46974.97;;;-142.92;78.80
56456;BME280;42354;53.218;6.564;2023-06-10T06:26:38;46972.91;;;-142.92;78.24
56456;BME280;42354;53.218;6.564;2023-06-10T06:29:04;46960.59;;;-142.92;77.85
56456;BME280;42354;53.218;6.564;2023-06-10T06:31:30;46974.97;;;-142.92;77.04
56456;BME280;42354;53.218;6.564;2023-06-10T06:33:55;46979.06;;;-142.92;75.64
56456;BME280;42354;53.218;6.564;2023-06-10T06:36:21;46968.81;;;-142.92;74.49
56456;BME280;42354;53.218;6.564;2023-06-10T06:38:46;46983.19;;;-142.92;73.90
56456;BME280;42354;53.218;6.564;2023-06-10T06:41:11;46983.19;;;-142.92;73.06
56456;BME280;42354;53.218;6.564;2023-06-10T06:43:37;46970.88;;;-142.92;72.34
56456;BME280;42354;53.218;6.564;2023-06-10T06:46:02;46960.59;;;-142.92;71.84
56456;BME280;42354;53.218;6.564;2023-06-10T06:48:27;46964.72;;;-142.92;72.10
56456;BME280;42354;53.218;6.564;2023-06-10T06:50:53;46956.50;;;-142.92;71.48
56456;BME280;42354;53.218;6.564;2023-06-10T06:53:18;46974.97;;;-142.92;70.51
56456;BME280;42354;53.218;6.564;2023-06-10T06:55:44;46974.97;;;-142.92;69.95
56456;BME280;42354;53.218;6.564;2023-06-10T06:58:09;46966.75;;;-142.92;68.86
56456;BME280;42354;53.218;6.564;2023-06-10T07:00:34;46966.75;;;-142.92;67.91
56456;BME280;42354;53.218;6.564;2023-06-10T07:03:00;46970.88;;;-142.92;67.59
56456;BME280;42354;53.218;6.564;2023-06-10T07:05:25;46974.97;;;-142.92;67.29
56456;BME280;42354;53.218;6.564;2023-06-10T07:07:52;46972.91;;;-142.92;66.40
56456;BME280;42354;53.218;6.564;2023-06-10T07:10:23;46972.91;;;-142.92;65.03
56456;BME280;42354;53.218;6.564;2023-06-10T07:12:49;46970.88;;;-142.92;63.87
56456;BME280;42354;53.218;6.564;2023-06-10T07:15:15;46962.66;;;-142.92;63.23
56456;BME280;42354;53.218;6.564;2023-06-10T07:17:40;46966.75;;;-142.92;62.75
56456;BME280;42354;53.218;6.564;2023-06-10T07:20:06;46968.81;;;-142.92;61.66
56456;BME280;42354;53.218;6.564;2023-06-10T07:22:31;46960.59;;;-142.92;60.77
56456;BME280;42354;53.218;6.564;2023-06-10T07:24:57;46972.91;;;-142.92;60.25
56456;BME280;42354;53.218;6.564;2023-06-10T07:27:23;46974.97;;;-142.92;59.82
56456;BME280;42354;53.218;6.564;2023-06-10T07:29:48;46966.75;;;-142.92;58.90
56456;BME280;42354;53.218;6.564;2023-06-10T07:32:14;46970.88;;;-142.92;57.82
56456;BME280;42354;53.218;6.564;2023-06-10T07:34:39;46970.88;;;-142.92;57.19
56456;BME280;42354;53.218;6.564;2023-06-10T07:37:05;46960.59;;;-142.92;56.77
56456;BME280;42354;53.218;6.564;2023-06-10T07:39:30;46964.72;;;-142.92;55.74
56456;BME280;42354;53.218;6.564;2023-06-10T07:41:56;46974.97;;;-142.92;55.82
56456;BME280;42354;53.218;6.564;2023-06-10T07:44:22;46974.97;;;-142.92;55.24
56456;BME280;42354;53.218;6.564;2023-06-10T07:46:48;46970.88;;;-142.92;55.03
56456;BME280;42354;53.218;6.564;2023-06-10T07:49:13;46970.88;;;-142.92;55.10
56456;BME280;42354;53.218;6.564;2023-06-10T07:51:39;46981.13;;;-142.92;55.02
56456;BME280;42354;53.218;6.564;2023-06-10T07:54:04;46972.91;;;-142.92;54.64
56456;BME280;42354;53.218;6.564;2023-06-10T07:57:20;46960.59;;;-142.92;53.31
56456;BME280;42354;53.218;6.564;2023-06-10T08:01:18;46977.03;;;-142.92;52.62
56456;BME280;42354;53.218;6.564;2023-06-10T08:03:44;46970.88;;;-142.92;52.29
56456;BME280;42354;53.218;6.564;2023-06-10T08:06:09;46970.88;;;-142.92;51.90
56456;BME280;42354;53.218;6.564;2023-06-10T08:08:36;46979.06;;;-142.92;51.52
56456;BME280;42354;53.218;6.564;2023-06-10T08:11:07;46970.88;;;-142.92;50.64
56456;BME280;42354;53.218;6.564;2023-06-10T08:13:32;46968.81;;;-142.92;50.99
56456;BME280;42354;53.218;6.564;2023-06-10T08:15:58;46950.34;;;-142.92;51.10
56456;BME280;42354;53.218;6.564;2023-06-10T08:18:23;46952.41;;;-142.92;50.70
56456;BME280;42354;53.218;6.564;2023-06-10T08:20:48;46977.03;;;-142.92;49.86
56456;BME280;42354;53.218;6.564;2023-06-10T08:23:14;46958.56;;;-142.92;49.38
56456;BME280;42354;53.218;6.564;2023-06-10T08:25:39;46979.06;;;-142.92;48.78
56456;BME280;42354;53.218;6.564;2023-06-10T08:28:05;46962.66;;;-142.92;48.20
56456;BME280;42354;53.218;6.564;2023-06-10T08:30:30;46974.97;;;-142.92;47.88
56456;BME280;42354;53.218;6.564;2023-06-10T08:32:55;46962.66;;;-142.92;47.21
56456;BME280;42354;53.218;6.564;2023-06-10T08:35:21;46966.75;;;-142.92;46.33
56456;BME280;42354;53.218;6.564;2023-06-10T08:37:47;46979.06;;;-142.92;46.00
56456;BME280;42354;53.218;6.564;2023-06-10T08:40:12;46964.72;;;-142.92;45.90
56456;BME280;42354;53.218;6.564;2023-06-10T08:42:41;46970.88;;;-142.92;45.48
56456;BME280;42354;53.218;6.564;2023-06-10T08:45:11;46979.06;;;-142.92;45.84
56456;BME280;42354;53.218;6.564;2023-06-10T08:47:38;46968.81;;;-142.92;45.41
56456;BME280;42354;53.218;6.564;2023-06-10T08:50:06;46981.13;;;-142.92;43.71
56456;BME280;42354;53.218;6.564;2023-06-10T08:52:36;46970.88;;;-142.92;43.42
56456;BME280;42354;53.218;6.564;2023-06-10T08:55:03;46972.91;;;-142.92;43.30
56456;BME280;42354;53.218;6.564;2023-06-10T08:57:30;46983.19;;;-142.92;43.25
56456;BME280;42354;53.218;6.564;2023-06-10T08:59:57;46966.75;;;-142.92;42.77
56456;BME280;42354;53.218;6.564;2023-06-10T09:02:23;46958.56;;;-142.92;42.03
56456;BME280;42354;53.218;6.564;2023-06-10T09:04:49;46966.75;;;-142.92;42.01
56456;BME280;42354;53.218;6.564;2023-06-10T09:07:17;46970.88;;;-142.92;42.15
56456;BME280;42354;53.218;6.564;2023-06-10T09:09:43;46974.97;;;-142.92;42.01
56456;BME280;42354;53.218;6.564;2023-06-10T09:12:11;46970.88;;;-142.92;41.96
56456;BME280;42354;53.218;6.564;2023-06-10T09:14:37;46972.91;;;-142.92;41.63
56456;BME280;42354;53.218;6.564;2023-06-10T09:17:03;46974.97;;;-142.92;41.91
56456;BME280;42354;53.218;6.564;2023-06-10T09:19:29;46968.81;;;-142.92;41.67
56456;BME280;42354;53.218;6.564;2023-06-10T09:21:54;46968.81;;;-142.92;41.74
56456;BME280;42354;53.218;6.564;2023-06-10T09:24:24;46974.97;;;-142.92;41.17
56456;BME280;42354;53.218;6.564;2023-06-10T09:26:50;46960.59;;;-142.92;40.95
56456;BME280;42354;53.218;6.564;2023-06-10T09:29:16;46970.88;;;-142.92;40.68
56456;BME280;42354;53.218;6.564;2023-06-10T09:31:43;46979.06;;;-142.92;40.56
56456;BME280;42354;53.218;6.564;2023-06-10T09:34:12;46972.91;;;-142.92;40.59
56456;BME280;42354;53.218;6.564;2023-06-10T09:36:39;46968.81;;;-142.92;40.57
56456;BME280;42354;53.218;6.564;2023-06-10T09:39:13;46950.34;;;-142.92;38.90
56456;BME280;42354;53.218;6.564;2023-06-10T09:41:41;46962.66;;;-142.92;38.48
56456;BME280;42354;53.218;6.564;2023-06-10T09:44:32;46966.75;;;-142.92;37.76
56456;BME280;42354;53.218;6.564;2023-06-10T09:46:58;46956.50;;;-142.92;37.84
56456;BME280;42354;53.218;6.564;2023-06-10T09:49:28;46970.88;;;-142.92;37.16
56456;BME280;42354;53.218;6.564;2023-06-10T09:51:54;46960.59;;;-142.92;37.06
56456;BME280;42354;53.218;6.564;2023-06-10T09:54:21;46962.66;;;-142.92;36.97
56456;BME280;42354;53.218;6.564;2023-06-10T09:56:48;46977.03;;;-142.92;37.13
56456;BME280;42354;53.218;6.564;2023-06-10T09:59:14;46958.56;;;-142.92;36.71
56456;BME280;42354;53.218;6.564;2023-06-10T10:01:39;46970.88;;;-142.92;36.60
56456;BME280;42354;53.218;6.564;2023-06-10T10:04:05;46960.59;;;-142.92;36.07
56456;BME280;42354;53.218;6.564;2023-06-10T10:06:31;46966.75;;;-142.92;36.39
56456;BME280;42354;53.218;6.564;2023-06-10T10:08:56;46979.06;;;-142.92;35.84
56456;BME280;42354;53.218;6.564;2023-06-10T10:11:22;46974.97;;;-142.92;35.76
56456;BME280;42354;53.218;6.564;2023-06-10T10:13:49;46964.72;;;-142.92;35.29
56456;BME280;42354;53.218;6.564;2023-06-10T10:16:19;46974.97;;;-142.92;34.89
56456;BME280;42354;53.218;6.564;2023-06-10T10:18:55;46972.91;;;-142.92;34.46
56456;BME280;42354;53.218;6.564;2023-06-10T10:21:23;46966.75;;;-142.92;34.60
56456;BME280;42354;53.218;6.564;2023-06-10T10:24:19;46972.91;;;-142.92;34.14
56456;BME280;42354;53.218;6.564;2023-06-10T10:26:47;46956.50;;;-142.92;33.96
56456;BME280;42354;53.218;6.564;2023-06-10T10:29:20;46974.97;;;-142.92;33.85
56456;BME280;42354;53.218;6.564;2023-06-10T10:31:51;46970.88;;;-142.92;33.17
56456;BME280;42354;53.218;6.564;2023-06-10T10:34:25;46972.91;;;-142.92;33.34
56456;BME280;42354;53.218;6.564;2023-06-10T10:36:54;46962.66;;;-142.92;33.32
56456;BME280;42354;53.218;6.564;2023-06-10T10:39:19;46958.56;;;-142.92;32.76
56456;BME280;42354;53.218;6.564;2023-06-10T10:41:46;46970.88;;;-142.92;32.51
56456;BME280;42354;53.218;6.564;2023-06-10T10:44:13;46974.97;;;-142.92;31.74
56456;BME280;42354;53.218;6.564;2023-06-10T10:46:48;46956.50;;;-142.92;31.07
56456;BME280;42354;53.218;6.564;2023-06-10T10:49:15;46966.75;;;-142.92;31.32
56456;BME280;42354;53.218;6.564;2023-06-10T10:54:29;46962.66;;;-142.92;32.27
56456;BME280;42354;53.218;6.564;2023-06-10T10:57:18;46952.41;;;-142.92;32.21
56456;BME280;42354;53.218;6.564;2023-06-10T10:59:58;46960.59;;;-142.92;32.02
56456;BME280;42354;53.218;6.564;2023-06-10T11:02:44;46968.81;;;-142.92;32.04
56456;BME280;42354;53.218;6.564;2023-06-10T11:05:16;46977.03;;;-142.92;32.27
56456;BME280;42354;53.218;6.564;2023-06-10T11:07:52;46966.75;;;-142.92;31.51
56456;BME280;42354;53.218;6.564;2023-06-10T11:10:29;46956.50;;;-142.92;31.38
56456;BME280;42354;53.218;6.564;2023-06-10T11:12:54;46954.44;;;-142.92;31.53
56456;BME280;42354;53.218;6.564;2023-06-10T11:15:24;46962.66;;;-142.92;30.92
56456;BME280;42354;53.218;6.564;2023-06-10T11:18:09;46966.75;;;-142.92;30.46
56456;BME280;42354;53.218;6.564;2023-06-10T11:26:29;46968.81;;;-142.92;30.90
56456;BME280;42354;53.218;6.564;2023-06-10T11:31:38;46968.81;;;-142.92;29.53
56456;BME280;42354;53.218;6.564;2023-06-10T11:34:06;46958.56;;;-142.92;28.93
56456;BME280;42354;53.218;6.564;2023-06-10T11:36:33;46958.56;;;-142.92;29.27
56456;BME280;42354;53.218;6.564;2023-06-10T11:39:02;46954.44;;;-142.92;29.17
56456;BME280;42354;53.218;6.564;2023-06-10T11:41:29;46964.72;;;-142.92;28.96
56456;BME280;42354;53.218;6.564;2023-06-10T11:43:57;46950.34;;;-142.92;29.37
56456;BME280;42354;53.218;6.564;2023-06-10T11:46:26;46962.66;;;-142.92;28.93
56456;BME280;42354;53.218;6.564;2023-06-10T11:48:56;46970.88;;;-142.92;28.90
56456;BME280;42354;53.218;6.564;2023-06-10T11:51:24;46964.72;;;-142.92;28.30
56456;BME280;42354;53.218;6.564;2023-06-10T11:53:50;46958.56;;;-142.92;29.55
56456;BME280;42354;53.218;6.564;2023-06-10T11:56:25;46958.56;;;-142.92;29.15
56456;BME280;42354;53.218;6.564;2023-06-10T11:59:02;46970.88;;;-142.92;29.63
56456;BME280;42354;53.218;6.564;2023-06-10T12:01:33;46966.75;;;-142.92;29.86
56456;BME280;42354;53.218;6.564;2023-06-10T12:04:04;46958.56;;;-142.92;30.02
56456;BME280;42354;53.218;6.564;2023-06-10T12:09:19;46962.66;;;-142.92;30.73
56456;BME280;42354;53.218;6.564;2023-06-10T12:11:48;46962.66;;;-142.92;31.19
56456;BME280;42354;53.218;6.564;2023-06-10T12:14:13;46958.56;;;-142.92;30.99
56456;BME280;42354;53.218;6.564;2023-06-10T12:16:39;46962.66;;;-142.92;30.04
56456;BME280;42354;53.218;6.564;2023-06-10T12:19:05;46960.59;;;-142.92;30.06
56456;BME280;42354;53.218;6.564;2023-06-10T12:21:33;46964.72;;;-142.92;29.69
56456;BME280;42354;53.218;6.564;2023-06-10T12:24:09;46972.91;;;-142.92;29.98
56456;BME280;42354;53.218;6.564;2023-06-10T12:29:01;46958.56;;;-142.92;29.53
56456;BME280;42354;53.218;6.564;2023-06-10T12:31:27;46962.66;;;-142.92;29.80
56456;BME280;42354;53.218;6.564;2023-06-10T12:34:07;46970.88;;;-142.92;29.95
56456;BME280;42354;53.218;6.564;2023-06-10T12:36:33;46958.56;;;-142.92;29.71
56456;BME280;42354;53.218;6.564;2023-06-10T12:39:03;46952.41;;;-142.92;29.16
56456;BME280;42354;53.218;6.564;2023-06-10T12:41:30;46960.59;;;-142.92;29.05
56456;BME280;42354;53.218;6.564;2023-06-10T12:43:57;46966.75;;;-142.92;29.79
56456;BME280;42354;53.218;6.564;2023-06-10T12:46:22;46964.72;;;-142.92;29.56
56456;BME280;42354;53.218;6.564;2023-06-10T12:48:51;46954.44;;;-142.92;29.82
56456;BME280;42354;53.218;6.564;2023-06-10T12:51:17;46960.59;;;-142.92;29.80
56456;BME280;42354;53.218;6.564;2023-06-10T12:53:42;46962.66;;;-142.92;29.85
56456;BME280;42354;53.218;6.564;2023-06-10T12:56:08;46966.75;;;-142.92;29.86
56456;BME280;42354;53.218;6.564;2023-06-10T12:58:34;46958.56;;;-142.92;30.15
56456;BME280;42354;53.218;6.564;2023-06-10T13:00:59;46960.59;;;-142.92;30.05